RYR1015 EPSC-ESGG
Flight info
| Callsign | RYR1015 |
|---|---|
| Flight time | 0h 52m |
| Altitude | 32000 |
| Route | BINKA M602 KOGIM M44 SALLO/N0418F280 M44 INRER L621 ERNOV N15 RISMA |
| Aircraft | B38M/M-SDE1FGHILORVWXY/HB1 |
Departure
| Time | 2026-05-07 11:34 |
|---|---|
| Airport | Solidarity Szczecin–Goleniów Airport (EPSC) |
Arrival
| Time | 2026-05-07 12:26 |
|---|---|
| Airport | Göteborg Landvetter Airport (ESGG) |
| Time | Latitude | Longitude | Altitude | Speed | Heading |
|---|---|---|---|---|---|
| 2026-05-07 11:25 | 53.59245 | 14.89397 | 134 ft | 0 kts | 48° |
| 2026-05-07 11:30 | 53.59246 | 14.89399 | 134 ft | 0 kts | 58° |
| 2026-05-07 11:30 | 53.59245 | 14.89401 | 134 ft | 0 kts | 76° |
| 2026-05-07 11:31 | 53.59245 | 14.89403 | 134 ft | 0 kts | 90° |
| 2026-05-07 11:31 | 53.59243 | 14.89406 | 134 ft | 0 kts | 123° |
| 2026-05-07 11:31 | 53.59241 | 14.89407 | 135 ft | 0 kts | 153° |
| 2026-05-07 11:31 | 53.59237 | 14.89403 | 135 ft | 1 kts | 209° |
| 2026-05-07 11:32 | 53.59208 | 14.89334 | 134 ft | 8 kts | 235° |
| 2026-05-07 11:32 | 53.59195 | 14.89257 | 134 ft | 8 kts | 289° |
| 2026-05-07 11:32 | 53.59233 | 14.89169 | 133 ft | 11 kts | 307° |
| 2026-05-07 11:33 | 53.59263 | 14.89042 | 132 ft | 14 kts | 264° |
| 2026-05-07 11:33 | 53.59243 | 14.88904 | 132 ft | 9 kts | 252° |
| 2026-05-07 11:33 | 53.59186 | 14.88853 | 132 ft | 11 kts | 158° |
| 2026-05-07 11:33 | 53.59134 | 14.88940 | 133 ft | 11 kts | 131° |
| 2026-05-07 11:34 | 53.59009 | 14.89182 | 138 ft | 62 kts | 130° |
| 2026-05-07 11:34 | 53.58558 | 14.90060 | 149 ft | 136 kts | 130° |
| 2026-05-07 11:34 | 53.57812 | 14.91465 | 467 ft | 170 kts | 131° |
| 2026-05-07 11:34 | 53.57056 | 14.92962 | 1428 ft | 172 kts | 123° |
| 2026-05-07 11:35 | 53.56257 | 14.94666 | 2078 ft | 197 kts | 127° |
| 2026-05-07 11:35 | 53.55295 | 14.96493 | 2845 ft | 219 kts | 128° |
| 2026-05-07 11:35 | 53.54253 | 14.98469 | 3617 ft | 238 kts | 128° |
| 2026-05-07 11:35 | 53.53135 | 15.00519 | 4777 ft | 239 kts | 135° |
| 2026-05-07 11:36 | 53.51623 | 15.01795 | 5811 ft | 253 kts | 166° |
| 2026-05-07 11:36 | 53.49837 | 15.01804 | 6743 ft | 264 kts | 192° |
| 2026-05-07 11:36 | 53.48126 | 15.00529 | 7460 ft | 280 kts | 218° |
| 2026-05-07 11:36 | 53.46893 | 14.98029 | 8545 ft | 278 kts | 244° |
| 2026-05-07 11:37 | 53.46333 | 14.94971 | 9583 ft | 281 kts | 262° |
| 2026-05-07 11:37 | 53.46232 | 14.91679 | 10468 ft | 289 kts | 277° |
| 2026-05-07 11:37 | 53.46869 | 14.88378 | 10995 ft | 308 kts | 301° |
| 2026-05-07 11:37 | 53.48181 | 14.85431 | 11609 ft | 322 kts | 308° |
| 2026-05-07 11:38 | 53.49602 | 14.82432 | 12310 ft | 333 kts | 309° |
| 2026-05-07 11:38 | 53.51059 | 14.79388 | 13249 ft | 336 kts | 309° |
| 2026-05-07 11:38 | 53.52544 | 14.76308 | 14063 ft | 341 kts | 309° |
| 2026-05-07 11:38 | 53.54045 | 14.73197 | 14819 ft | 345 kts | 309° |
| 2026-05-07 11:39 | 53.55568 | 14.70045 | 15557 ft | 350 kts | 308° |
| 2026-05-07 11:39 | 53.57115 | 14.66842 | 16289 ft | 354 kts | 308° |
| 2026-05-07 11:39 | 53.58679 | 14.63603 | 17020 ft | 359 kts | 308° |
| 2026-05-07 11:39 | 53.60259 | 14.60327 | 17786 ft | 361 kts | 308° |
| 2026-05-07 11:40 | 53.61845 | 14.57034 | 18505 ft | 363 kts | 307° |
| 2026-05-07 11:40 | 53.63426 | 14.53746 | 19128 ft | 366 kts | 307° |
| 2026-05-07 11:40 | 53.65040 | 14.50385 | 19700 ft | 371 kts | 307° |
| 2026-05-07 11:40 | 53.66665 | 14.46993 | 20304 ft | 374 kts | 307° |
| 2026-05-07 11:41 | 53.68309 | 14.43559 | 20900 ft | 377 kts | 307° |
| 2026-05-07 11:41 | 53.69965 | 14.40100 | 21490 ft | 381 kts | 307° |
| 2026-05-07 11:41 | 53.71634 | 14.36607 | 22028 ft | 385 kts | 307° |
| 2026-05-07 11:41 | 53.73324 | 14.33062 | 22589 ft | 389 kts | 307° |
| 2026-05-07 11:42 | 53.75029 | 14.29482 | 23145 ft | 392 kts | 307° |
| 2026-05-07 11:42 | 53.76887 | 14.26064 | 23677 ft | 397 kts | 315° |
| 2026-05-07 11:42 | 53.78914 | 14.22857 | 24122 ft | 401 kts | 314° |
| 2026-05-07 11:42 | 53.80948 | 14.19614 | 24564 ft | 404 kts | 314° |
| 2026-05-07 11:43 | 53.83003 | 14.16344 | 25025 ft | 407 kts | 314° |
| 2026-05-07 11:43 | 53.85063 | 14.13058 | 25476 ft | 409 kts | 314° |
| 2026-05-07 11:43 | 53.87150 | 14.09728 | 25899 ft | 412 kts | 314° |
| 2026-05-07 11:43 | 53.89244 | 14.06382 | 26362 ft | 415 kts | 314° |
| 2026-05-07 11:44 | 53.91352 | 14.03008 | 26791 ft | 418 kts | 314° |
| 2026-05-07 11:44 | 53.93461 | 13.99627 | 27213 ft | 420 kts | 314° |
| 2026-05-07 11:44 | 53.95597 | 13.96197 | 27679 ft | 421 kts | 313° |
| 2026-05-07 11:44 | 53.97703 | 13.92810 | 28124 ft | 423 kts | 313° |
| 2026-05-07 11:45 | 53.99845 | 13.89361 | 28518 ft | 426 kts | 313° |
| 2026-05-07 11:45 | 54.01997 | 13.85890 | 28914 ft | 428 kts | 313° |
| 2026-05-07 11:45 | 54.03441 | 13.83557 | 29167 ft | 430 kts | 313° |
| 2026-05-07 11:45 | 54.05622 | 13.80029 | 29588 ft | 432 kts | 313° |
| 2026-05-07 11:46 | 54.07805 | 13.76495 | 30029 ft | 433 kts | 313° |
| 2026-05-07 11:46 | 54.10089 | 13.73105 | 30325 ft | 440 kts | 323° |
| 2026-05-07 11:46 | 54.12815 | 13.70628 | 30701 ft | 444 kts | 330° |
| 2026-05-07 11:46 | 54.15540 | 13.68260 | 30940 ft | 447 kts | 330° |
| 2026-05-07 11:47 | 54.18323 | 13.65851 | 31333 ft | 447 kts | 330° |
| 2026-05-07 11:47 | 54.21110 | 13.63459 | 31688 ft | 447 kts | 330° |
| 2026-05-07 11:47 | 54.23857 | 13.61108 | 31963 ft | 446 kts | 330° |
| 2026-05-07 11:47 | 54.26633 | 13.58731 | 32117 ft | 444 kts | 330° |
| 2026-05-07 11:48 | 54.29395 | 13.56363 | 32088 ft | 441 kts | 330° |
| 2026-05-07 11:48 | 54.32271 | 13.54415 | 32076 ft | 444 kts | 345° |
| 2026-05-07 11:48 | 54.35291 | 13.53592 | 32108 ft | 447 kts | 349° |
| 2026-05-07 11:49 | 54.41451 | 13.51946 | 32093 ft | 447 kts | 349° |
| 2026-05-07 11:49 | 54.47603 | 13.50375 | 32087 ft | 447 kts | 349° |
| 2026-05-07 11:50 | 54.53697 | 13.48780 | 32111 ft | 441 kts | 349° |
| 2026-05-07 11:50 | 54.59751 | 13.47172 | 32097 ft | 439 kts | 349° |
| 2026-05-07 11:51 | 54.65807 | 13.45561 | 32097 ft | 439 kts | 349° |
| 2026-05-07 11:51 | 54.71847 | 13.43947 | 32098 ft | 439 kts | 349° |
| 2026-05-07 11:52 | 54.77853 | 13.42336 | 32098 ft | 439 kts | 349° |
| 2026-05-07 11:52 | 54.83888 | 13.40711 | 32100 ft | 439 kts | 349° |
| 2026-05-07 11:53 | 54.89929 | 13.39081 | 32101 ft | 439 kts | 349° |
| 2026-05-07 11:53 | 54.95797 | 13.36572 | 32110 ft | 437 kts | 342° |
| 2026-05-07 11:54 | 55.01653 | 13.33714 | 32102 ft | 437 kts | 342° |
| 2026-05-07 11:54 | 55.07521 | 13.30825 | 32106 ft | 437 kts | 342° |
| 2026-05-07 11:55 | 55.13365 | 13.27939 | 32102 ft | 436 kts | 342° |
| 2026-05-07 11:55 | 55.19153 | 13.25073 | 32100 ft | 434 kts | 342° |
| 2026-05-07 11:56 | 55.24976 | 13.22180 | 32095 ft | 434 kts | 342° |
| 2026-05-07 11:56 | 55.30788 | 13.19284 | 32091 ft | 433 kts | 342° |
| 2026-05-07 11:57 | 55.36563 | 13.16396 | 32083 ft | 434 kts | 342° |
| 2026-05-07 11:57 | 55.42377 | 13.13481 | 32080 ft | 434 kts | 342° |
| 2026-05-07 11:58 | 55.48180 | 13.10563 | 32096 ft | 434 kts | 342° |
| 2026-05-07 11:58 | 55.53983 | 13.07635 | 32096 ft | 433 kts | 342° |
| 2026-05-07 11:59 | 55.59753 | 13.04716 | 32100 ft | 433 kts | 342° |
| 2026-05-07 11:59 | 55.65542 | 13.01778 | 32099 ft | 432 kts | 342° |
| 2026-05-07 12:00 | 55.71311 | 12.98841 | 32103 ft | 424 kts | 343° |
| 2026-05-07 12:00 | 55.74066 | 12.97435 | 32113 ft | 407 kts | 343° |
| 2026-05-07 12:00 | 55.76771 | 12.96052 | 32113 ft | 401 kts | 343° |
| 2026-05-07 12:00 | 55.79448 | 12.94682 | 31918 ft | 398 kts | 343° |
| 2026-05-07 12:01 | 55.82146 | 12.93300 | 31042 ft | 406 kts | 343° |
| 2026-05-07 12:01 | 55.84878 | 12.91898 | 30276 ft | 411 kts | 343° |
| 2026-05-07 12:01 | 55.87578 | 12.90509 | 29740 ft | 408 kts | 343° |
| 2026-05-07 12:01 | 55.90285 | 12.89116 | 29322 ft | 402 kts | 343° |
| 2026-05-07 12:02 | 55.92937 | 12.87747 | 29057 ft | 393 kts | 342° |
| 2026-05-07 12:02 | 55.95527 | 12.86412 | 28888 ft | 382 kts | 342° |
| 2026-05-07 12:02 | 55.98059 | 12.85104 | 28506 ft | 377 kts | 342° |
| 2026-05-07 12:02 | 56.00575 | 12.83802 | 28034 ft | 375 kts | 342° |
| 2026-05-07 12:03 | 56.03074 | 12.82492 | 27608 ft | 372 kts | 340° |
| 2026-05-07 12:03 | 56.05348 | 12.80426 | 27100 ft | 367 kts | 320° |
| 2026-05-07 12:03 | 56.07140 | 12.77208 | 26738 ft | 361 kts | 311° |
| 2026-05-07 12:03 | 56.08820 | 12.73896 | 26387 ft | 358 kts | 311° |
| 2026-05-07 12:04 | 56.10472 | 12.70579 | 25986 ft | 355 kts | 310° |
| 2026-05-07 12:04 | 56.12081 | 12.67306 | 25610 ft | 353 kts | 310° |
| 2026-05-07 12:04 | 56.13690 | 12.64001 | 25228 ft | 351 kts | 309° |
| 2026-05-07 12:04 | 56.15284 | 12.60710 | 24862 ft | 349 kts | 309° |
| 2026-05-07 12:05 | 56.17052 | 12.57747 | 24423 ft | 352 kts | 326° |
| 2026-05-07 12:05 | 56.19270 | 12.55857 | 24038 ft | 352 kts | 335° |
| 2026-05-07 12:05 | 56.21516 | 12.54142 | 23712 ft | 349 kts | 334° |
| 2026-05-07 12:05 | 56.23754 | 12.52459 | 23281 ft | 348 kts | 334° |
| 2026-05-07 12:06 | 56.25980 | 12.50810 | 22886 ft | 345 kts | 335° |
| 2026-05-07 12:06 | 56.28199 | 12.49179 | 22522 ft | 342 kts | 335° |
| 2026-05-07 12:06 | 56.30394 | 12.47572 | 22170 ft | 339 kts | 335° |
| 2026-05-07 12:06 | 56.32575 | 12.45977 | 21804 ft | 336 kts | 335° |
| 2026-05-07 12:07 | 56.34726 | 12.44403 | 21457 ft | 333 kts | 335° |
| 2026-05-07 12:07 | 56.36862 | 12.42839 | 21112 ft | 330 kts | 335° |
| 2026-05-07 12:07 | 56.38988 | 12.41280 | 20769 ft | 328 kts | 335° |
| 2026-05-07 12:07 | 56.41064 | 12.39757 | 20430 ft | 325 kts | 335° |
| 2026-05-07 12:08 | 56.43176 | 12.38204 | 20101 ft | 323 kts | 335° |
| 2026-05-07 12:08 | 56.45224 | 12.36698 | 19760 ft | 320 kts | 335° |
| 2026-05-07 12:08 | 56.47280 | 12.35184 | 19427 ft | 318 kts | 335° |
| 2026-05-07 12:08 | 56.49328 | 12.33673 | 19096 ft | 316 kts | 335° |
| 2026-05-07 12:09 | 56.51361 | 12.32172 | 18773 ft | 314 kts | 335° |
| 2026-05-07 12:09 | 56.53382 | 12.30678 | 18442 ft | 313 kts | 335° |
| 2026-05-07 12:09 | 56.55384 | 12.29197 | 18074 ft | 311 kts | 335° |
| 2026-05-07 12:09 | 56.57372 | 12.27724 | 17734 ft | 309 kts | 335° |
| 2026-05-07 12:10 | 56.59366 | 12.26245 | 17389 ft | 312 kts | 335° |
| 2026-05-07 12:10 | 56.61389 | 12.24743 | 17059 ft | 316 kts | 335° |
| 2026-05-07 12:10 | 56.63428 | 12.23227 | 16730 ft | 316 kts | 335° |
| 2026-05-07 12:10 | 56.65469 | 12.21708 | 16393 ft | 315 kts | 335° |
| 2026-05-07 12:11 | 56.67485 | 12.20206 | 16072 ft | 312 kts | 335° |
| 2026-05-07 12:11 | 56.69483 | 12.18715 | 15747 ft | 309 kts | 335° |
| 2026-05-07 12:11 | 56.71442 | 12.17252 | 15430 ft | 306 kts | 335° |
| 2026-05-07 12:11 | 56.73429 | 12.15767 | 15113 ft | 304 kts | 335° |
| 2026-05-07 12:12 | 56.75380 | 12.14306 | 14787 ft | 302 kts | 335° |
| 2026-05-07 12:12 | 56.77291 | 12.12874 | 14477 ft | 300 kts | 336° |
| 2026-05-07 12:12 | 56.79214 | 12.11431 | 14163 ft | 298 kts | 336° |
| 2026-05-07 12:12 | 56.81117 | 12.10001 | 13837 ft | 296 kts | 335° |
| 2026-05-07 12:13 | 56.83019 | 12.08571 | 13480 ft | 294 kts | 335° |
| 2026-05-07 12:13 | 56.84902 | 12.07155 | 13152 ft | 291 kts | 335° |
| 2026-05-07 12:13 | 56.86763 | 12.05753 | 12840 ft | 288 kts | 336° |
| 2026-05-07 12:13 | 56.88607 | 12.04362 | 12534 ft | 285 kts | 336° |
| 2026-05-07 12:14 | 56.90440 | 12.02979 | 12236 ft | 284 kts | 336° |
| 2026-05-07 12:14 | 56.92297 | 12.01581 | 11929 ft | 289 kts | 337° |
| 2026-05-07 12:14 | 56.94243 | 12.00705 | 11582 ft | 294 kts | 350° |
| 2026-05-07 12:14 | 56.96272 | 12.00158 | 11262 ft | 295 kts | 350° |
| 2026-05-07 12:15 | 56.98305 | 11.99591 | 10955 ft | 295 kts | 350° |
| 2026-05-07 12:15 | 57.00332 | 11.99018 | 10634 ft | 294 kts | 350° |
| 2026-05-07 12:15 | 57.02348 | 11.98444 | 10358 ft | 291 kts | 349° |
| 2026-05-07 12:15 | 57.04331 | 11.98008 | 10201 ft | 283 kts | 0° |
| 2026-05-07 12:16 | 57.06262 | 11.98415 | 10028 ft | 277 kts | 7° |
| 2026-05-07 12:16 | 57.08164 | 11.98894 | 9727 ft | 274 kts | 6° |
| 2026-05-07 12:16 | 57.10030 | 11.99359 | 9405 ft | 273 kts | 6° |
| 2026-05-07 12:16 | 57.11912 | 11.99828 | 9101 ft | 271 kts | 6° |
| 2026-05-07 12:17 | 57.13774 | 12.00289 | 8801 ft | 268 kts | 5° |
| 2026-05-07 12:17 | 57.15599 | 12.00743 | 8516 ft | 266 kts | 5° |
| 2026-05-07 12:17 | 57.17453 | 12.01204 | 8222 ft | 264 kts | 6° |
| 2026-05-07 12:17 | 57.19247 | 12.01652 | 7914 ft | 263 kts | 6° |
| 2026-05-07 12:18 | 57.21067 | 12.02104 | 7613 ft | 261 kts | 5° |
| 2026-05-07 12:18 | 57.22845 | 12.02546 | 7346 ft | 259 kts | 6° |
| 2026-05-07 12:18 | 57.24620 | 12.02989 | 7072 ft | 257 kts | 6° |
| 2026-05-07 12:18 | 57.26396 | 12.03433 | 6798 ft | 255 kts | 6° |
| 2026-05-07 12:19 | 57.28129 | 12.03866 | 6526 ft | 253 kts | 6° |
| 2026-05-07 12:19 | 57.29867 | 12.04300 | 6230 ft | 251 kts | 6° |
| 2026-05-07 12:19 | 57.31594 | 12.04733 | 5943 ft | 250 kts | 7° |
| 2026-05-07 12:19 | 57.33310 | 12.05164 | 5665 ft | 247 kts | 7° |
| 2026-05-07 12:20 | 57.35018 | 12.05594 | 5369 ft | 246 kts | 7° |
| 2026-05-07 12:20 | 57.36718 | 12.06022 | 5069 ft | 246 kts | 8° |
| 2026-05-07 12:20 | 57.38394 | 12.06444 | 4905 ft | 240 kts | 8° |
| 2026-05-07 12:20 | 57.40000 | 12.06847 | 4765 ft | 232 kts | 8° |
| 2026-05-07 12:21 | 57.41572 | 12.07243 | 4641 ft | 223 kts | 8° |
| 2026-05-07 12:21 | 57.43089 | 12.07625 | 4499 ft | 215 kts | 8° |
| 2026-05-07 12:21 | 57.44509 | 12.08270 | 4384 ft | 206 kts | 22° |
| 2026-05-07 12:21 | 57.45763 | 12.09362 | 4353 ft | 199 kts | 26° |
| 2026-05-07 12:22 | 57.47019 | 12.10538 | 4266 ft | 205 kts | 26° |
| 2026-05-07 12:22 | 57.48299 | 12.11708 | 4124 ft | 204 kts | 26° |
| 2026-05-07 12:22 | 57.49583 | 12.12869 | 3865 ft | 204 kts | 25° |
| 2026-05-07 12:22 | 57.50861 | 12.14027 | 3631 ft | 203 kts | 25° |
| 2026-05-07 12:23 | 57.52101 | 12.15141 | 3366 ft | 192 kts | 25° |
| 2026-05-07 12:23 | 57.53256 | 12.16177 | 3138 ft | 182 kts | 25° |
| 2026-05-07 12:23 | 57.54374 | 12.17199 | 2887 ft | 176 kts | 25° |
| 2026-05-07 12:23 | 57.55466 | 12.18183 | 2633 ft | 172 kts | 25° |
| 2026-05-07 12:24 | 57.56535 | 12.19150 | 2422 ft | 170 kts | 24° |
| 2026-05-07 12:24 | 57.57599 | 12.20112 | 2184 ft | 169 kts | 22° |
| 2026-05-07 12:24 | 57.58628 | 12.21040 | 1976 ft | 164 kts | 23° |
| 2026-05-07 12:24 | 57.59644 | 12.21963 | 1738 ft | 161 kts | 23° |
| 2026-05-07 12:25 | 57.60628 | 12.22852 | 1542 ft | 153 kts | 22° |
| 2026-05-07 12:25 | 57.61568 | 12.23700 | 1309 ft | 148 kts | 22° |
| 2026-05-07 12:25 | 57.62497 | 12.24541 | 1105 ft | 149 kts | 21° |
| 2026-05-07 12:25 | 57.63432 | 12.25384 | 921 ft | 148 kts | 21° |
| 2026-05-07 12:26 | 57.64339 | 12.26246 | 745 ft | 148 kts | 22° |
| 2026-05-07 12:26 | 57.65279 | 12.27074 | 523 ft | 149 kts | 23° |
| 2026-05-07 12:26 | 57.66099 | 12.27806 | 511 ft | 99 kts | 26° |
| 2026-05-07 12:26 | 57.66504 | 12.28175 | 514 ft | 31 kts | 28° |
| 2026-05-07 12:27 | 57.66648 | 12.28400 | 515 ft | 18 kts | 52° |
| 2026-05-07 12:27 | 57.66720 | 12.28584 | 515 ft | 17 kts | 55° |
| 2026-05-07 12:27 | 57.66765 | 12.28704 | 515 ft | 6 kts | 55° |
| 2026-05-07 12:27 | 57.66770 | 12.28716 | 515 ft | 2 kts | 55° |
| 2026-05-07 12:28 | 57.66784 | 12.28754 | 515 ft | 5 kts | 55° |
| 2026-05-07 12:28 | 57.66813 | 12.28807 | 515 ft | 7 kts | 38° |
| 2026-05-07 12:28 | 57.66830 | 12.28883 | 516 ft | 6 kts | 103° |
| 2026-05-07 12:28 | 57.66821 | 12.28928 | 518 ft | 2 kts | 129° |
| 2026-05-07 12:29 | 57.66803 | 12.28945 | 518 ft | 4 kts | 168° |
| 2026-05-07 12:29 | 57.66768 | 12.28930 | 518 ft | 6 kts | 202° |
| 2026-05-07 12:29 | 57.66719 | 12.28891 | 518 ft | 9 kts | 203° |
| 2026-05-07 12:29 | 57.66654 | 12.28849 | 518 ft | 10 kts | 171° |
| 2026-05-07 12:30 | 57.66614 | 12.28954 | 518 ft | 9 kts | 117° |
| 2026-05-07 12:30 | 57.66578 | 12.28968 | 518 ft | 5 kts | 201° |
| 2026-05-07 12:30 | 57.66535 | 12.28953 | 518 ft | 7 kts | 161° |
| 2026-05-07 12:30 | 57.66503 | 12.28975 | 518 ft | 1 kts | 178° |
| 2026-05-07 12:31 | 57.66497 | 12.28971 | 518 ft | 3 kts | 202° |
| 2026-05-07 12:31 | 57.66486 | 12.28973 | 518 ft | 0 kts | 141° |
| 2026-05-07 12:31 | 57.66480 | 12.28996 | 518 ft | 6 kts | 118° |
| 2026-05-07 12:31 | 57.66471 | 12.29031 | 518 ft | 2 kts | 115° |
| 2026-05-07 12:32 | 57.66464 | 12.29058 | 518 ft | 2 kts | 115° |
| 2026-05-07 12:32 | 57.66462 | 12.29064 | 518 ft | 0 kts | 116° |